createdAt,value
2019-03-19T00:00:53.222Z,1024.95
2019-03-19T00:01:53.427Z,1024.95
2019-03-19T00:02:54.190Z,1024.96
2019-03-19T00:03:53.265Z,1024.97
2019-03-19T00:04:53.250Z,1024.97
2019-03-19T00:05:53.292Z,1024.98
2019-03-19T00:06:53.233Z,1024.98
2019-03-19T00:07:53.256Z,1024.98
2019-03-19T00:08:53.231Z,1025.03
2019-03-19T00:09:53.239Z,1025.03
2019-03-19T00:10:53.239Z,1025.06
2019-03-19T00:11:53.251Z,1025.07
2019-03-19T00:12:53.247Z,1025.06
2019-03-19T00:13:53.243Z,1025.09
2019-03-19T00:14:53.220Z,1025.08
2019-03-19T00:15:53.228Z,1025.11
2019-03-19T00:16:54.097Z,1025.09
2019-03-19T00:17:53.247Z,1025.1
2019-03-19T00:18:53.215Z,1025.12
2019-03-19T00:19:53.238Z,1025.1
2019-03-19T00:20:53.252Z,1025.12
2019-03-19T00:21:53.207Z,1025.13
2019-03-19T00:22:53.253Z,1025.08
2019-03-19T00:23:53.487Z,1025.12
2019-03-19T00:24:53.579Z,1025.12
2019-03-19T00:25:53.341Z,1025.15
2019-03-19T00:26:53.235Z,1025.13
2019-03-19T00:27:53.229Z,1025.15
2019-03-19T00:28:53.187Z,1025.18
2019-03-19T00:29:53.356Z,1025.22
2019-03-19T00:30:53.189Z,1025.2
2019-03-19T00:31:53.212Z,1025.2
2019-03-19T00:32:53.227Z,1025.2
2019-03-19T00:33:53.318Z,1025.18
2019-03-19T00:34:53.179Z,1025.17
2019-03-19T00:35:53.179Z,1025.13
2019-03-19T00:36:53.215Z,1025.16
2019-03-19T00:37:53.205Z,1025.12
2019-03-19T00:38:53.173Z,1025.17
2019-03-19T00:39:53.190Z,1025.17
2019-03-19T00:40:53.180Z,1025.19
2019-03-19T00:41:53.332Z,1025.18
2019-03-19T00:42:53.213Z,1025.19
2019-03-19T00:43:53.183Z,1025.17
2019-03-19T00:44:53.199Z,1025.19
2019-03-19T00:45:53.418Z,1025.2
2019-03-19T00:46:53.428Z,1025.19
2019-03-19T00:47:53.213Z,1025.21
2019-03-19T00:48:53.166Z,1025.21
2019-03-19T00:49:53.165Z,1025.19
2019-03-19T00:50:53.190Z,1025.2
2019-03-19T00:51:54.073Z,1025.21
2019-03-19T00:52:53.182Z,1025.19
2019-03-19T00:53:53.162Z,1025.17
2019-03-19T00:54:53.173Z,1025.16
2019-03-19T00:55:53.166Z,1025.17
2019-03-19T00:56:53.164Z,1025.16
2019-03-19T00:57:53.159Z,1025.17
2019-03-19T00:58:53.154Z,1025.16
2019-03-19T00:59:53.152Z,1025.19
2019-03-19T01:00:53.148Z,1025.15
2019-03-19T01:01:53.138Z,1025.17
2019-03-19T01:02:53.164Z,1025.16
2019-03-19T01:03:53.217Z,1025.16
2019-03-19T01:04:53.208Z,1025.18
2019-03-19T01:05:53.158Z,1025.2
2019-03-19T01:06:53.187Z,1025.21
2019-03-19T01:07:53.468Z,1025.21
2019-03-19T01:08:53.130Z,1025.21
2019-03-19T01:09:53.155Z,1025.19
2019-03-19T01:10:53.166Z,1025.18
2019-03-19T01:11:53.138Z,1025.21
2019-03-19T01:12:53.142Z,1025.19
2019-03-19T01:13:53.120Z,1025.17
2019-03-19T01:14:53.143Z,1025.18
2019-03-19T01:15:53.137Z,1025.13
2019-03-19T01:16:53.137Z,1025.17
2019-03-19T01:17:53.144Z,1025.17
2019-03-19T01:18:53.131Z,1025.16
2019-03-19T01:19:53.140Z,1025.15
2019-03-19T01:20:53.111Z,1025.1
2019-03-19T01:21:53.137Z,1025.14
2019-03-19T01:22:53.124Z,1025.14
2019-03-19T01:23:53.195Z,1025.15
2019-03-19T01:24:53.209Z,1025.11
2019-03-19T01:25:56.024Z,1025.12
2019-03-19T01:26:53.119Z,1025.12
2019-03-19T01:27:53.158Z,1025.14
2019-03-19T01:28:53.116Z,1025.15
2019-03-19T01:29:53.136Z,1025.17
2019-03-19T01:30:53.136Z,1025.1
2019-03-19T01:31:53.105Z,1025.13
2019-03-19T01:32:53.170Z,1025.1
2019-03-19T01:33:53.244Z,1025.08
2019-03-19T01:34:53.127Z,1025.11
2019-03-19T01:35:53.088Z,1025.11
2019-03-19T01:36:53.082Z,1025.11
2019-03-19T01:37:53.151Z,1025.11
2019-03-19T01:38:53.098Z,1025.11
2019-03-19T01:39:53.087Z,1025.15
2019-03-19T01:40:53.103Z,1025.13
2019-03-19T01:41:53.078Z,1025.14
2019-03-19T01:42:53.090Z,1025.16
2019-03-19T01:43:53.096Z,1025.14
2019-03-19T01:44:53.095Z,1025.13
2019-03-19T01:45:53.078Z,1025.12
2019-03-19T01:46:53.117Z,1025.1
2019-03-19T01:47:53.072Z,1025.08
2019-03-19T01:48:53.103Z,1025.09
2019-03-19T01:49:53.088Z,1025.09
2019-03-19T01:50:53.341Z,1025.13
2019-03-19T01:51:53.061Z,1025.17
2019-03-19T01:52:53.066Z,1025.22
2019-03-19T01:53:53.078Z,1025.23
2019-03-19T01:54:53.076Z,1025.24
2019-03-19T01:55:53.085Z,1025.23
2019-03-19T01:56:53.068Z,1025.24
2019-03-19T01:57:53.088Z,1025.22
2019-03-19T01:58:53.085Z,1025.26
2019-03-19T01:59:53.073Z,1025.22
2019-03-19T02:00:53.118Z,1025.19
2019-03-19T02:01:53.074Z,1025.18
2019-03-19T02:02:53.077Z,1025.17
2019-03-19T02:03:53.059Z,1025.11
2019-03-19T02:04:53.090Z,1025.16
2019-03-19T02:05:53.170Z,1025.17
2019-03-19T02:06:53.046Z,1025.2
2019-03-19T02:07:53.114Z,1025.22
2019-03-19T02:08:53.115Z,1025.25
2019-03-19T02:09:53.046Z,1025.26
2019-03-19T02:10:53.049Z,1025.26
2019-03-19T02:11:53.056Z,1025.22
2019-03-19T02:12:53.380Z,1025.22
2019-03-19T02:13:53.050Z,1025.25
2019-03-19T02:14:53.029Z,1025.21
2019-03-19T02:15:53.049Z,1025.21
2019-03-19T02:16:53.033Z,1025.18
2019-03-19T02:17:53.055Z,1025.21
2019-03-19T02:18:53.032Z,1025.24
2019-03-19T02:19:53.049Z,1025.26
2019-03-19T02:20:53.017Z,1025.25
2019-03-19T02:21:53.026Z,1025.26
2019-03-19T02:22:53.215Z,1025.24
2019-03-19T02:23:53.046Z,1025.25
2019-03-19T02:24:53.057Z,1025.27
2019-03-19T02:25:53.032Z,1025.3
2019-03-19T02:26:53.104Z,1025.3
2019-03-19T02:27:53.030Z,1025.31
2019-03-19T02:28:53.021Z,1025.31
2019-03-19T02:29:53.013Z,1025.34
2019-03-19T02:30:53.108Z,1025.29
2019-03-19T02:31:53.048Z,1025.3
2019-03-19T02:32:53.010Z,1025.25
2019-03-19T02:33:53.111Z,1025.23
2019-03-19T02:34:53.183Z,1025.23
2019-03-19T02:35:53.033Z,1025.22
2019-03-19T02:36:53.003Z,1025.22
2019-03-19T02:37:52.997Z,1025.22
2019-03-19T02:38:52.986Z,1025.25
2019-03-19T02:39:53.013Z,1025.32
2019-03-19T02:40:53.086Z,1025.34
2019-03-19T02:41:53.020Z,1025.32
2019-03-19T02:42:53.018Z,1025.35
2019-03-19T02:43:52.983Z,1025.32
2019-03-19T02:44:52.998Z,1025.36
2019-03-19T02:45:52.988Z,1025.37
2019-03-19T02:46:52.994Z,1025.35
2019-03-19T02:47:53.425Z,1025.35
2019-03-19T02:48:53.058Z,1025.36
2019-03-19T02:49:52.990Z,1025.34
2019-03-19T02:50:52.977Z,1025.36
2019-03-19T02:51:52.976Z,1025.41
2019-03-19T02:52:52.998Z,1025.41
2019-03-19T02:53:52.989Z,1025.43
2019-03-19T02:54:52.966Z,1025.46
2019-03-19T02:55:54.840Z,1025.43
2019-03-19T02:56:52.994Z,1025.43
2019-03-19T02:57:53.005Z,1025.45
2019-03-19T02:58:52.985Z,1025.46
2019-03-19T02:59:52.968Z,1025.49
2019-03-19T03:00:52.985Z,1025.49
2019-03-19T03:01:53.041Z,1025.52
2019-03-19T03:02:52.987Z,1025.57
2019-03-19T03:03:52.976Z,1025.54
2019-03-19T03:04:53.009Z,1025.58
2019-03-19T03:05:52.974Z,1025.59
2019-03-19T03:06:52.952Z,1025.61
2019-03-19T03:07:53.030Z,1025.62
2019-03-19T03:08:52.999Z,1025.65
2019-03-19T03:09:52.946Z,1025.64
2019-03-19T03:10:52.982Z,1025.64
2019-03-19T03:11:52.956Z,1025.67
2019-03-19T03:12:52.968Z,1025.66
2019-03-19T03:13:52.942Z,1025.67
2019-03-19T03:14:52.997Z,1025.66
2019-03-19T03:15:52.917Z,1025.72
2019-03-19T03:16:52.946Z,1025.73
2019-03-19T03:17:52.960Z,1025.7
2019-03-19T03:18:52.957Z,1025.73
2019-03-19T03:19:52.949Z,1025.69
2019-03-19T03:20:52.947Z,1025.7
2019-03-19T03:21:52.956Z,1025.72
2019-03-19T03:22:52.935Z,1025.71
2019-03-19T03:23:52.935Z,1025.68
2019-03-19T03:24:53.002Z,1025.71
2019-03-19T03:25:52.934Z,1025.75
2019-03-19T03:26:52.939Z,1025.73
2019-03-19T03:27:52.961Z,1025.74
2019-03-19T03:28:52.953Z,1025.71
2019-03-19T03:29:52.937Z,1025.7
2019-03-19T03:30:52.948Z,1025.69
2019-03-19T03:31:52.934Z,1025.71
2019-03-19T03:32:53.146Z,1025.73
2019-03-19T03:33:52.897Z,1025.73
2019-03-19T03:34:52.916Z,1025.77
2019-03-19T03:35:52.969Z,1025.78
2019-03-19T03:36:52.949Z,1025.78
2019-03-19T03:37:52.958Z,1025.76
2019-03-19T03:38:52.916Z,1025.84
2019-03-19T03:39:52.907Z,1025.83
2019-03-19T03:40:52.925Z,1025.85
2019-03-19T03:41:52.904Z,1025.91
2019-03-19T03:42:52.894Z,1025.93
2019-03-19T03:43:52.877Z,1025.94
2019-03-19T03:44:52.907Z,1025.94
2019-03-19T03:45:53.020Z,1025.99
2019-03-19T03:46:52.879Z,1025.98
2019-03-19T03:47:52.895Z,1026
2019-03-19T03:48:52.985Z,1026
2019-03-19T03:49:52.956Z,1026
2019-03-19T03:50:52.911Z,1026.06
2019-03-19T03:51:52.887Z,1025.99
2019-03-19T03:52:52.942Z,1026.03
2019-03-19T03:53:52.901Z,1025.99
2019-03-19T03:54:52.902Z,1026
2019-03-19T03:55:52.932Z,1026.01
2019-03-19T03:57:02.814Z,1025.97
2019-03-19T03:57:52.905Z,1026.02
2019-03-19T03:59:01.382Z,1026.09
2019-03-19T03:59:52.881Z,1026.12
2019-03-19T04:00:53.279Z,1026.19
2019-03-19T04:01:52.900Z,1026.2
2019-03-19T04:02:52.913Z,1026.24
2019-03-19T04:03:52.858Z,1026.23
2019-03-19T04:04:52.897Z,1026.26
2019-03-19T04:05:52.912Z,1026.25
2019-03-19T04:06:52.882Z,1026.25
2019-03-19T04:07:52.864Z,1026.27
2019-03-19T04:08:52.871Z,1026.26
2019-03-19T04:09:53.031Z,1026.3
2019-03-19T04:10:52.894Z,1026.29
2019-03-19T04:11:52.877Z,1026.3
2019-03-19T04:12:52.888Z,1026.35
2019-03-19T04:13:52.874Z,1026.34
2019-03-19T04:14:52.899Z,1026.37
2019-03-19T04:15:52.880Z,1026.38
2019-03-19T04:16:52.879Z,1026.43
2019-03-19T04:17:52.867Z,1026.47
2019-03-19T04:18:52.853Z,1026.46
2019-03-19T04:19:52.845Z,1026.44
2019-03-19T04:20:52.834Z,1026.47
2019-03-19T04:21:52.840Z,1026.5
2019-03-19T04:22:53.114Z,1026.53
2019-03-19T04:23:52.829Z,1026.56
2019-03-19T04:24:52.852Z,1026.57
2019-03-19T04:25:52.841Z,1026.57
2019-03-19T04:26:52.866Z,1026.57
2019-03-19T04:27:52.848Z,1026.59
2019-03-19T04:28:52.854Z,1026.6
2019-03-19T04:29:52.857Z,1026.6
2019-03-19T04:30:52.862Z,1026.66
2019-03-19T04:31:52.897Z,1026.69
2019-03-19T04:32:52.825Z,1026.64
2019-03-19T04:33:52.904Z,1026.65
2019-03-19T04:34:52.859Z,1026.63
2019-03-19T04:35:52.818Z,1026.6
2019-03-19T04:36:52.843Z,1026.59
2019-03-19T04:37:52.821Z,1026.61
2019-03-19T04:38:52.908Z,1026.56
2019-03-19T04:39:52.810Z,1026.61
2019-03-19T04:40:52.855Z,1026.61
2019-03-19T04:41:52.835Z,1026.63
2019-03-19T04:42:52.974Z,1026.69
2019-03-19T04:43:53.058Z,1026.68
2019-03-19T04:44:53.049Z,1026.72
2019-03-19T04:45:52.826Z,1026.74
2019-03-19T04:46:52.922Z,1026.79
2019-03-19T04:47:52.839Z,1026.77
2019-03-19T04:48:52.833Z,1026.81
2019-03-19T04:49:52.847Z,1026.87
2019-03-19T04:50:53.151Z,1026.92
2019-03-19T04:51:52.835Z,1026.89
2019-03-19T04:52:52.786Z,1026.96
2019-03-19T04:53:52.827Z,1026.96
2019-03-19T04:54:52.790Z,1026.95
2019-03-19T04:55:52.802Z,1026.94
2019-03-19T04:56:52.848Z,1026.97
2019-03-19T04:57:52.780Z,1026.98
2019-03-19T04:58:52.816Z,1026.98
2019-03-19T04:59:52.783Z,1026.99
2019-03-19T05:00:52.801Z,1026.99
2019-03-19T05:01:52.778Z,1027
2019-03-19T05:02:52.767Z,1027.02
2019-03-19T05:03:52.787Z,1027.02
2019-03-19T05:04:52.787Z,1027.02
2019-03-19T05:05:53.090Z,1027.05
2019-03-19T05:06:52.805Z,1027.06
2019-03-19T05:07:52.801Z,1027.09
2019-03-19T05:08:52.791Z,1027.1
2019-03-19T05:09:52.795Z,1027.12
2019-03-19T05:10:52.778Z,1027.11
2019-03-19T05:11:52.775Z,1027.1
2019-03-19T05:12:52.743Z,1027.06
2019-03-19T05:13:52.753Z,1027.12
2019-03-19T05:14:52.781Z,1027.15
2019-03-19T05:15:52.766Z,1027.19
2019-03-19T05:16:52.771Z,1027.18
2019-03-19T05:17:52.756Z,1027.17
2019-03-19T05:18:52.765Z,1027.22
2019-03-19T05:19:52.760Z,1027.18
2019-03-19T05:20:52.768Z,1027.19
2019-03-19T05:21:52.747Z,1027.19
2019-03-19T05:22:52.767Z,1027.25
2019-03-19T05:23:52.746Z,1027.24
2019-03-19T05:24:52.797Z,1027.25
2019-03-19T05:25:53.628Z,1027.26
2019-03-19T05:26:52.734Z,1027.25
2019-03-19T05:27:52.922Z,1027.26
2019-03-19T05:28:52.779Z,1027.3
2019-03-19T05:29:52.770Z,1027.29
2019-03-19T05:30:52.755Z,1027.28
2019-03-19T05:31:52.728Z,1027.23
2019-03-19T05:32:52.760Z,1027.25
2019-03-19T05:33:52.726Z,1027.26
2019-03-19T05:34:52.749Z,1027.27
2019-03-19T05:35:52.733Z,1027.34
2019-03-19T05:36:52.770Z,1027.28
2019-03-19T05:37:52.722Z,1027.3
2019-03-19T05:38:53.603Z,1027.33
2019-03-19T05:39:52.761Z,1027.32
2019-03-19T05:40:52.731Z,1027.25
2019-03-19T05:41:52.813Z,1027.29
2019-03-19T05:42:52.724Z,1027.28
2019-03-19T05:43:52.723Z,1027.27
2019-03-19T05:44:52.826Z,1027.28
2019-03-19T05:45:52.701Z,1027.31
2019-03-19T05:46:52.700Z,1027.29
2019-03-19T05:48:52.718Z,1027.33
2019-03-19T05:49:52.751Z,1027.41
2019-03-19T05:50:52.730Z,1027.4
2019-03-19T05:51:52.736Z,1027.44
2019-03-19T05:52:52.720Z,1027.46
2019-03-19T05:53:52.704Z,1027.44
2019-03-19T05:54:52.700Z,1027.41
2019-03-19T05:55:52.716Z,1027.41
2019-03-19T05:56:52.691Z,1027.44
2019-03-19T05:57:52.706Z,1027.43
2019-03-19T05:58:52.683Z,1027.45
2019-03-19T05:59:52.771Z,1027.44
2019-03-19T06:00:52.784Z,1027.43
2019-03-19T06:01:52.715Z,1027.48
2019-03-19T06:02:52.986Z,1027.46
2019-03-19T06:03:52.701Z,1027.48
2019-03-19T06:04:52.706Z,1027.46
2019-03-19T06:05:52.698Z,1027.45
2019-03-19T06:06:52.685Z,1027.49
2019-03-19T06:07:52.724Z,1027.48
2019-03-19T06:08:52.684Z,1027.47
2019-03-19T06:09:52.708Z,1027.5
2019-03-19T06:10:54.335Z,1027.57
2019-03-19T06:11:53.021Z,1027.57
2019-03-19T06:12:52.777Z,1027.59
2019-03-19T06:13:52.701Z,1027.63
2019-03-19T06:14:52.687Z,1027.6
2019-03-19T06:15:52.690Z,1027.63
2019-03-19T06:16:52.666Z,1027.62
2019-03-19T06:17:52.738Z,1027.63
2019-03-19T06:18:52.706Z,1027.63
2019-03-19T06:19:52.672Z,1027.65
2019-03-19T06:20:52.692Z,1027.66
2019-03-19T06:21:52.668Z,1027.69
2019-03-19T06:22:52.693Z,1027.73
2019-03-19T06:23:52.683Z,1027.72
2019-03-19T06:24:52.650Z,1027.7
2019-03-19T06:25:52.710Z,1027.74
2019-03-19T06:26:52.752Z,1027.73
2019-03-19T06:28:00.932Z,1027.74
2019-03-19T06:28:52.699Z,1027.75
2019-03-19T06:29:52.645Z,1027.76
2019-03-19T06:30:52.657Z,1027.75
2019-03-19T06:31:52.650Z,1027.78
2019-03-19T06:32:53.052Z,1027.82
2019-03-19T06:33:52.633Z,1027.82
2019-03-19T06:34:52.628Z,1027.87
2019-03-19T06:35:52.629Z,1027.84
2019-03-19T06:36:52.664Z,1027.87
2019-03-19T06:37:52.649Z,1027.86
2019-03-19T06:38:52.632Z,1027.86
2019-03-19T06:39:52.646Z,1027.88
2019-03-19T06:40:52.663Z,1027.87
2019-03-19T06:41:52.623Z,1027.88
2019-03-19T06:42:52.639Z,1027.86
2019-03-19T06:43:52.628Z,1027.88
2019-03-19T06:44:52.622Z,1027.93
2019-03-19T06:45:52.646Z,1027.9
2019-03-19T06:46:52.641Z,1027.91
2019-03-19T06:47:52.621Z,1027.93
2019-03-19T06:48:52.632Z,1027.94
2019-03-19T06:49:52.623Z,1027.96
2019-03-19T06:50:52.662Z,1027.95
2019-03-19T06:51:52.702Z,1027.93
2019-03-19T06:52:52.645Z,1027.95
2019-03-19T06:53:52.645Z,1028.02
2019-03-19T06:54:53.293Z,1028.04
2019-03-19T06:55:52.612Z,1028.02
2019-03-19T06:56:52.619Z,1028.04
2019-03-19T06:57:52.607Z,1028.04
2019-03-19T06:58:52.610Z,1028.05
2019-03-19T06:59:52.613Z,1028.11
2019-03-19T07:00:52.615Z,1028.09
2019-03-19T07:01:52.629Z,1028.09
2019-03-19T07:02:52.652Z,1028.08
2019-03-19T07:03:52.644Z,1028.07
2019-03-19T07:04:52.611Z,1028.06
2019-03-19T07:05:52.589Z,1028.08
2019-03-19T07:06:52.596Z,1028.06
2019-03-19T07:07:52.669Z,1028.05
2019-03-19T07:08:52.628Z,1028.07
2019-03-19T07:09:52.598Z,1028.1
2019-03-19T07:10:52.597Z,1028.1
2019-03-19T07:11:52.600Z,1028.16
2019-03-19T07:12:52.594Z,1028.18
2019-03-19T07:13:52.615Z,1028.14
2019-03-19T07:14:52.617Z,1028.16
2019-03-19T07:15:52.643Z,1028.19
2019-03-19T07:16:52.594Z,1028.21
2019-03-19T07:17:52.587Z,1028.21
2019-03-19T07:18:52.573Z,1028.21
2019-03-19T07:19:52.568Z,1028.19
2019-03-19T07:20:52.574Z,1028.22
2019-03-19T07:21:52.568Z,1028.18
2019-03-19T07:22:52.564Z,1028.18
2019-03-19T07:23:52.570Z,1028.18
2019-03-19T07:24:52.565Z,1028.22
2019-03-19T07:25:52.584Z,1028.23
2019-03-19T07:26:52.576Z,1028.26
2019-03-19T07:27:52.552Z,1028.29
2019-03-19T07:28:52.602Z,1028.29
2019-03-19T07:29:52.563Z,1028.33
2019-03-19T07:30:52.563Z,1028.3
2019-03-19T07:31:52.554Z,1028.32
2019-03-19T07:32:52.546Z,1028.33
2019-03-19T07:33:52.685Z,1028.33
2019-03-19T07:34:52.543Z,1028.33
2019-03-19T07:35:52.555Z,1028.33
2019-03-19T07:36:52.549Z,1028.31
2019-03-19T07:37:52.801Z,1028.29
2019-03-19T07:38:52.383Z,1028.26
2019-03-19T07:39:52.563Z,1028.31
2019-03-19T07:40:52.567Z,1028.33
2019-03-19T07:41:52.647Z,1028.33
2019-03-19T07:42:52.539Z,1028.34
2019-03-19T07:43:52.556Z,1028.29
2019-03-19T07:44:52.552Z,1028.29
2019-03-19T07:45:52.566Z,1028.36
2019-03-19T07:46:52.538Z,1028.34
2019-03-19T07:47:52.558Z,1028.39
2019-03-19T07:48:52.568Z,1028.31
2019-03-19T07:49:52.540Z,1028.33
2019-03-19T07:50:52.539Z,1028.32
2019-03-19T07:51:53.738Z,1028.35
2019-03-19T07:52:52.544Z,1028.4
2019-03-19T07:53:52.531Z,1028.41
2019-03-19T07:54:52.532Z,1028.43
2019-03-19T07:55:53.766Z,1028.44
2019-03-19T07:56:52.524Z,1028.42
2019-03-19T07:57:52.514Z,1028.47
2019-03-19T07:58:52.552Z,1028.42
2019-03-19T07:59:52.613Z,1028.39
2019-03-19T08:00:52.553Z,1028.4
2019-03-19T08:01:52.515Z,1028.38
2019-03-19T08:02:52.613Z,1028.42
2019-03-19T08:03:52.559Z,1028.47
2019-03-19T08:04:52.510Z,1028.46
2019-03-19T08:05:52.494Z,1028.51
2019-03-19T08:06:52.544Z,1028.55
2019-03-19T08:07:52.530Z,1028.58
2019-03-19T08:08:52.575Z,1028.57
2019-03-19T08:09:52.546Z,1028.55
2019-03-19T08:10:52.496Z,1028.54
2019-03-19T08:11:52.538Z,1028.54
2019-03-19T08:12:52.503Z,1028.59
2019-03-19T08:13:52.508Z,1028.6
2019-03-19T08:14:52.619Z,1028.64
2019-03-19T08:15:52.531Z,1028.62
2019-03-19T08:16:53.491Z,1028.66
2019-03-19T08:17:52.477Z,1028.62
2019-03-19T08:18:52.499Z,1028.67
2019-03-19T08:19:52.503Z,1028.69
2019-03-19T08:20:52.665Z,1028.65
2019-03-19T08:21:52.477Z,1028.63
2019-03-19T08:22:52.471Z,1028.62
2019-03-19T08:23:52.484Z,1028.61
2019-03-19T08:24:52.471Z,1028.58
2019-03-19T08:25:52.527Z,1028.58
2019-03-19T08:26:52.487Z,1028.57
2019-03-19T08:27:52.487Z,1028.59
2019-03-19T08:28:55.764Z,1028.63
2019-03-19T08:29:52.476Z,1028.66
2019-03-19T08:30:52.521Z,1028.68
2019-03-19T08:31:52.743Z,1028.68
2019-03-19T08:32:52.469Z,1028.7
2019-03-19T08:33:52.470Z,1028.76
2019-03-19T08:34:52.461Z,1028.76
2019-03-19T08:35:52.456Z,1028.77
2019-03-19T08:36:52.482Z,1028.77
2019-03-19T08:37:52.492Z,1028.75
2019-03-19T08:38:52.462Z,1028.76
2019-03-19T08:39:52.452Z,1028.79
2019-03-19T08:40:52.540Z,1028.81
2019-03-19T08:41:52.450Z,1028.79
2019-03-19T08:42:53.479Z,1028.78
2019-03-19T08:43:52.848Z,1028.75
2019-03-19T08:44:52.451Z,1028.74
2019-03-19T08:45:52.476Z,1028.72
2019-03-19T08:46:52.438Z,1028.76
2019-03-19T08:47:52.451Z,1028.7
2019-03-19T08:48:52.439Z,1028.72
2019-03-19T08:49:52.729Z,1028.73
2019-03-19T08:50:52.426Z,1028.73
2019-03-19T08:51:52.435Z,1028.72
2019-03-19T08:52:55.337Z,1028.69
2019-03-19T08:53:52.424Z,1028.72
2019-03-19T08:54:52.467Z,1028.72
2019-03-19T08:55:52.433Z,1028.69
2019-03-19T08:56:52.433Z,1028.67
2019-03-19T08:57:52.424Z,1028.69
2019-03-19T08:58:52.436Z,1028.72
2019-03-19T08:59:52.437Z,1028.71
2019-03-19T09:00:52.413Z,1028.69
2019-03-19T09:01:52.419Z,1028.7
2019-03-19T09:02:52.410Z,1028.78
2019-03-19T09:03:52.411Z,1028.79
2019-03-19T09:04:52.445Z,1028.83
2019-03-19T09:05:52.442Z,1028.87
2019-03-19T09:06:52.438Z,1028.85
2019-03-19T09:07:52.403Z,1028.84
2019-03-19T09:08:52.401Z,1028.81
2019-03-19T09:09:52.457Z,1028.83
2019-03-19T09:10:52.517Z,1028.86
2019-03-19T09:11:52.456Z,1028.85
2019-03-19T09:12:52.426Z,1028.82
2019-03-19T09:13:52.395Z,1028.84
2019-03-19T09:14:52.389Z,1028.86
2019-03-19T09:15:52.395Z,1028.88
2019-03-19T09:16:52.403Z,1028.94
2019-03-19T09:17:52.412Z,1028.97
2019-03-19T09:18:52.399Z,1028.94
2019-03-19T09:19:52.385Z,1028.92
2019-03-19T09:20:54.228Z,1028.9
2019-03-19T09:21:52.392Z,1028.88
2019-03-19T09:22:52.427Z,1028.86
2019-03-19T09:23:52.378Z,1028.87
2019-03-19T09:24:52.389Z,1028.91
2019-03-19T09:25:52.381Z,1028.9
2019-03-19T09:26:52.376Z,1028.97
2019-03-19T09:27:52.408Z,1028.92
2019-03-19T09:28:52.378Z,1028.93
2019-03-19T09:29:52.373Z,1028.96
2019-03-19T09:30:52.381Z,1028.99
2019-03-19T09:31:52.427Z,1029.01
2019-03-19T09:32:52.517Z,1029.01
2019-03-19T09:33:52.361Z,1028.98
2019-03-19T09:34:52.368Z,1028.97
2019-03-19T09:35:52.396Z,1028.95
2019-03-19T09:36:57.829Z,1029
2019-03-19T09:37:59.142Z,1028.98
2019-03-19T09:38:52.362Z,1028.97
2019-03-19T09:39:52.378Z,1028.97
2019-03-19T09:40:52.408Z,1028.99
2019-03-19T09:41:52.398Z,1029.03
2019-03-19T09:42:52.406Z,1028.99
2019-03-19T09:43:53.743Z,1029.01
2019-03-19T09:44:58.873Z,1029.04
2019-03-19T09:45:52.352Z,1028.98
2019-03-19T09:46:52.388Z,1029.03
2019-03-19T09:47:52.411Z,1029.01
2019-03-19T09:48:52.415Z,1029.02
2019-03-19T09:49:52.351Z,1029.01
2019-03-19T09:50:52.343Z,1028.99
2019-03-19T09:51:52.330Z,1029.01
2019-03-19T09:52:52.333Z,1029.02
2019-03-19T09:53:52.530Z,1029.01
2019-03-19T09:54:52.653Z,1028.98
2019-03-19T09:55:52.346Z,1029.01
2019-03-19T09:56:52.334Z,1029.01
2019-03-19T09:57:52.414Z,1029
2019-03-19T09:58:52.393Z,1029.03
2019-03-19T09:59:52.334Z,1029.03
2019-03-19T10:00:52.335Z,1029.04
2019-03-19T10:01:52.336Z,1029.03
2019-03-19T10:02:52.310Z,1029.05
2019-03-19T10:03:52.361Z,1029.05
2019-03-19T10:04:52.379Z,1029.05
2019-03-19T10:05:52.315Z,1029.07
2019-03-19T10:06:52.322Z,1029.03
2019-03-19T10:07:52.330Z,1028.99
2019-03-19T10:08:52.344Z,1029.02
2019-03-19T10:09:52.330Z,1029
2019-03-19T10:10:52.713Z,1029.01
2019-03-19T10:11:52.329Z,1029
2019-03-19T10:12:52.319Z,1029.03
2019-03-19T10:13:52.560Z,1028.99
2019-03-19T10:14:52.308Z,1028.96
2019-03-19T10:15:52.409Z,1029
2019-03-19T10:16:52.329Z,1028.96
2019-03-19T10:17:52.315Z,1029
2019-03-19T10:18:52.396Z,1028.99
2019-03-19T10:19:52.306Z,1028.96
2019-03-19T10:20:52.300Z,1028.95
2019-03-19T10:21:52.309Z,1028.93
2019-03-19T10:22:52.364Z,1028.94
2019-03-19T10:23:52.330Z,1028.92
2019-03-19T10:24:52.290Z,1028.94
2019-03-19T10:25:52.289Z,1028.91
2019-03-19T10:26:52.282Z,1028.94
2019-03-19T10:27:52.287Z,1028.96
2019-03-19T10:28:52.284Z,1028.94
2019-03-19T10:29:52.291Z,1028.95
2019-03-19T10:30:52.272Z,1028.93
2019-03-19T10:31:52.292Z,1028.88
2019-03-19T10:32:52.469Z,1028.94
2019-03-19T10:33:52.281Z,1028.87
2019-03-19T10:34:52.344Z,1028.89
2019-03-19T10:35:52.304Z,1028.85
2019-03-19T10:36:52.301Z,1028.84
2019-03-19T10:37:52.352Z,1028.84
2019-03-19T10:38:52.301Z,1028.86
2019-03-19T10:39:52.274Z,1028.86
2019-03-19T10:40:52.265Z,1028.88
2019-03-19T10:41:52.286Z,1028.91
2019-03-19T10:42:52.249Z,1028.98
2019-03-19T10:43:52.261Z,1028.93
2019-03-19T10:44:52.256Z,1028.93
2019-03-19T10:45:52.309Z,1028.9
2019-03-19T10:46:52.284Z,1028.94
2019-03-19T10:47:52.271Z,1028.96
2019-03-19T10:48:52.253Z,1028.96
2019-03-19T10:49:52.261Z,1028.98
2019-03-19T10:50:52.316Z,1028.96
2019-03-19T10:51:52.258Z,1028.95
2019-03-19T10:52:52.261Z,1028.99
2019-03-19T10:53:52.306Z,1028.98
2019-03-19T10:54:52.265Z,1028.98
2019-03-19T10:55:52.261Z,1028.94
2019-03-19T10:56:52.248Z,1029
2019-03-19T10:57:52.315Z,1029
2019-03-19T10:58:52.482Z,1028.95
2019-03-19T10:59:52.566Z,1028.98
2019-03-19T11:00:06.493Z,1028.98
2019-03-19T11:01:06.217Z,1028.97
2019-03-19T11:02:06.204Z,1028.93
2019-03-19T11:03:06.215Z,1028.89
2019-03-19T11:04:06.315Z,1028.91
2019-03-19T11:05:06.202Z,1028.9
2019-03-19T11:06:06.221Z,1028.89
2019-03-19T11:07:06.212Z,1028.91
2019-03-19T11:08:06.267Z,1028.9
2019-03-19T11:09:06.220Z,1028.91
2019-03-19T11:10:06.212Z,1028.93
2019-03-19T11:11:06.190Z,1028.92
2019-03-19T11:12:06.191Z,1028.92
2019-03-19T11:13:06.218Z,1028.91
2019-03-19T11:14:06.199Z,1028.91
2019-03-19T11:15:06.191Z,1028.88
2019-03-19T11:16:06.201Z,1028.93
2019-03-19T11:17:06.199Z,1028.89
2019-03-19T11:18:06.192Z,1028.9
2019-03-19T11:19:06.182Z,1028.85
2019-03-19T11:20:06.235Z,1028.91
2019-03-19T11:21:06.314Z,1028.92
2019-03-19T11:22:06.208Z,1028.9
2019-03-19T11:23:06.180Z,1028.86
2019-03-19T11:24:06.200Z,1028.88
2019-03-19T11:25:06.165Z,1028.88
2019-03-19T11:26:06.175Z,1028.86
2019-03-19T11:27:06.167Z,1028.9
2019-03-19T11:28:06.191Z,1028.89
2019-03-19T11:29:06.182Z,1028.9
2019-03-19T11:30:06.862Z,1028.89
2019-03-19T11:31:06.183Z,1028.9
2019-03-19T11:32:06.164Z,1028.91
2019-03-19T11:33:06.176Z,1028.93
2019-03-19T11:34:06.214Z,1028.91
2019-03-19T11:35:06.179Z,1028.91
2019-03-19T11:36:06.183Z,1028.87
2019-03-19T11:37:06.179Z,1028.89
2019-03-19T11:38:06.199Z,1028.87
2019-03-19T11:39:06.151Z,1028.92
2019-03-19T11:40:06.226Z,1028.91
2019-03-19T11:41:07.505Z,1028.93
2019-03-19T11:42:06.543Z,1028.96
2019-03-19T11:43:06.275Z,1028.93
2019-03-19T11:44:06.143Z,1028.94
2019-03-19T11:45:06.194Z,1028.96
2019-03-19T11:46:06.152Z,1028.97
2019-03-19T11:47:06.130Z,1028.98
2019-03-19T11:48:06.171Z,1028.96
2019-03-19T11:49:06.139Z,1028.97
2019-03-19T11:50:06.152Z,1028.87
2019-03-19T11:51:06.204Z,1028.92
2019-03-19T11:52:06.139Z,1028.87
2019-03-19T11:53:06.198Z,1028.89
2019-03-19T11:54:06.169Z,1028.88
2019-03-19T11:55:06.166Z,1028.88
2019-03-19T11:56:06.156Z,1028.87
2019-03-19T11:57:06.132Z,1028.88
2019-03-19T11:58:06.131Z,1028.91
2019-03-19T11:59:06.125Z,1028.85
2019-03-19T12:00:11.781Z,1028.96
2019-03-19T12:01:06.124Z,1028.87
2019-03-19T12:02:06.138Z,1028.84
2019-03-19T12:03:16.018Z,1028.83
2019-03-19T12:04:06.291Z,1028.83
2019-03-19T12:05:06.145Z,1028.75
2019-03-19T12:06:06.112Z,1028.74
2019-03-19T12:07:06.185Z,1028.77
2019-03-19T12:08:06.171Z,1028.75
2019-03-19T12:09:06.123Z,1028.82